sensor_id;sensor_type;location;lat;lon;timestamp;P1;durP1;ratioP1;P2;durP2;ratioP2
20230;SDS011;10274;49.022;9.338;2022-12-20T00:00:48;2.67;;;1.87;;
20230;SDS011;10274;49.022;9.338;2022-12-20T00:03:14;2.87;;;2.57;;
20230;SDS011;10274;49.022;9.338;2022-12-20T00:05:41;2.73;;;2.10;;
20230;SDS011;10274;49.022;9.338;2022-12-20T00:08:08;2.43;;;2.03;;
20230;SDS011;10274;49.022;9.338;2022-12-20T00:10:35;2.43;;;1.90;;
20230;SDS011;10274;49.022;9.338;2022-12-20T00:13:04;4.53;;;2.27;;
20230;SDS011;10274;49.022;9.338;2022-12-20T00:15:31;2.70;;;1.80;;
20230;SDS011;10274;49.022;9.338;2022-12-20T00:17:58;2.57;;;1.70;;
20230;SDS011;10274;49.022;9.338;2022-12-20T00:20:25;3.13;;;1.93;;
20230;SDS011;10274;49.022;9.338;2022-12-20T00:22:53;2.70;;;1.47;;
20230;SDS011;10274;49.022;9.338;2022-12-20T00:25:20;1.97;;;1.73;;
20230;SDS011;10274;49.022;9.338;2022-12-20T00:27:47;2.27;;;1.77;;
20230;SDS011;10274;49.022;9.338;2022-12-20T00:30:15;2.10;;;1.90;;
20230;SDS011;10274;49.022;9.338;2022-12-20T00:32:43;3.57;;;2.27;;
20230;SDS011;10274;49.022;9.338;2022-12-20T00:35:10;2.53;;;2.33;;
20230;SDS011;10274;49.022;9.338;2022-12-20T00:37:38;2.27;;;2.03;;
20230;SDS011;10274;49.022;9.338;2022-12-20T00:40:05;2.67;;;1.70;;
20230;SDS011;10274;49.022;9.338;2022-12-20T00:42:32;2.43;;;1.40;;
20230;SDS011;10274;49.022;9.338;2022-12-20T00:44:59;2.63;;;1.40;;
20230;SDS011;10274;49.022;9.338;2022-12-20T00:47:27;2.50;;;1.63;;
20230;SDS011;10274;49.022;9.338;2022-12-20T00:49:54;3.40;;;1.73;;
20230;SDS011;10274;49.022;9.338;2022-12-20T00:52:20;2.20;;;1.50;;
20230;SDS011;10274;49.022;9.338;2022-12-20T00:54:47;3.57;;;1.70;;
20230;SDS011;10274;49.022;9.338;2022-12-20T00:57:14;1.50;;;1.40;;
20230;SDS011;10274;49.022;9.338;2022-12-20T00:59:40;2.50;;;1.77;;
20230;SDS011;10274;49.022;9.338;2022-12-20T01:02:07;2.73;;;1.77;;
20230;SDS011;10274;49.022;9.338;2022-12-20T01:04:35;2.13;;;1.50;;
20230;SDS011;10274;49.022;9.338;2022-12-20T01:07:02;2.30;;;1.83;;
20230;SDS011;10274;49.022;9.338;2022-12-20T01:09:29;1.60;;;1.50;;
20230;SDS011;10274;49.022;9.338;2022-12-20T01:11:56;1.40;;;1.27;;
20230;SDS011;10274;49.022;9.338;2022-12-20T01:14:23;3.53;;;1.87;;
20230;SDS011;10274;49.022;9.338;2022-12-20T01:16:50;2.13;;;1.80;;
20230;SDS011;10274;49.022;9.338;2022-12-20T01:19:16;1.87;;;1.77;;
20230;SDS011;10274;49.022;9.338;2022-12-20T01:21:45;3.03;;;1.53;;
20230;SDS011;10274;49.022;9.338;2022-12-20T01:24:12;2.40;;;1.57;;
20230;SDS011;10274;49.022;9.338;2022-12-20T01:26:41;1.80;;;1.67;;
20230;SDS011;10274;49.022;9.338;2022-12-20T01:29:08;1.43;;;1.33;;
20230;SDS011;10274;49.022;9.338;2022-12-20T01:31:35;2.07;;;1.60;;
20230;SDS011;10274;49.022;9.338;2022-12-20T01:34:02;3.80;;;1.80;;
20230;SDS011;10274;49.022;9.338;2022-12-20T01:36:30;1.80;;;1.53;;
20230;SDS011;10274;49.022;9.338;2022-12-20T01:39:00;1.87;;;1.73;;
20230;SDS011;10274;49.022;9.338;2022-12-20T01:41:29;2.33;;;1.90;;
20230;SDS011;10274;49.022;9.338;2022-12-20T01:43:58;2.30;;;1.33;;
20230;SDS011;10274;49.022;9.338;2022-12-20T01:46:27;2.17;;;1.63;;
20230;SDS011;10274;49.022;9.338;2022-12-20T01:48:57;3.63;;;2.13;;
20230;SDS011;10274;49.022;9.338;2022-12-20T01:51:27;4.40;;;2.00;;
20230;SDS011;10274;49.022;9.338;2022-12-20T01:53:56;2.97;;;1.73;;
20230;SDS011;10274;49.022;9.338;2022-12-20T01:56:29;3.57;;;2.40;;
20230;SDS011;10274;49.022;9.338;2022-12-20T01:58:56;2.67;;;1.87;;
20230;SDS011;10274;49.022;9.338;2022-12-20T02:01:24;2.53;;;1.80;;
20230;SDS011;10274;49.022;9.338;2022-12-20T02:03:51;3.03;;;1.23;;
20230;SDS011;10274;49.022;9.338;2022-12-20T02:06:21;2.50;;;2.10;;
20230;SDS011;10274;49.022;9.338;2022-12-20T02:08:50;2.10;;;1.57;;
20230;SDS011;10274;49.022;9.338;2022-12-20T02:11:27;2.13;;;1.70;;
20230;SDS011;10274;49.022;9.338;2022-12-20T02:14:13;3.00;;;1.30;;
20230;SDS011;10274;49.022;9.338;2022-12-20T02:16:55;2.77;;;1.80;;
20230;SDS011;10274;49.022;9.338;2022-12-20T02:19:33;1.50;;;1.40;;
20230;SDS011;10274;49.022;9.338;2022-12-20T02:22:18;2.50;;;1.67;;
20230;SDS011;10274;49.022;9.338;2022-12-20T02:25:03;1.93;;;1.53;;
20230;SDS011;10274;49.022;9.338;2022-12-20T02:27:53;2.43;;;2.07;;
20230;SDS011;10274;49.022;9.338;2022-12-20T02:30:29;2.33;;;2.13;;
20230;SDS011;10274;49.022;9.338;2022-12-20T02:33:01;2.27;;;1.63;;
20230;SDS011;10274;49.022;9.338;2022-12-20T02:35:33;1.67;;;1.43;;
20230;SDS011;10274;49.022;9.338;2022-12-20T02:38:02;2.33;;;1.33;;
20230;SDS011;10274;49.022;9.338;2022-12-20T02:40:50;2.60;;;1.60;;
20230;SDS011;10274;49.022;9.338;2022-12-20T02:43:20;2.73;;;2.03;;
20230;SDS011;10274;49.022;9.338;2022-12-20T02:46:09;2.97;;;1.80;;
20230;SDS011;10274;49.022;9.338;2022-12-20T02:48:38;1.67;;;1.40;;
20230;SDS011;10274;49.022;9.338;2022-12-20T02:51:06;3.30;;;1.70;;
20230;SDS011;10274;49.022;9.338;2022-12-20T02:53:35;2.97;;;1.67;;
20230;SDS011;10274;49.022;9.338;2022-12-20T02:56:04;2.10;;;1.30;;
20230;SDS011;10274;49.022;9.338;2022-12-20T02:58:39;2.00;;;1.40;;
20230;SDS011;10274;49.022;9.338;2022-12-20T03:01:15;1.90;;;1.63;;
20230;SDS011;10274;49.022;9.338;2022-12-20T03:03:46;2.23;;;1.40;;
20230;SDS011;10274;49.022;9.338;2022-12-20T03:06:14;3.07;;;2.13;;
20230;SDS011;10274;49.022;9.338;2022-12-20T03:08:41;2.17;;;1.60;;
20230;SDS011;10274;49.022;9.338;2022-12-20T03:11:08;2.63;;;1.73;;
20230;SDS011;10274;49.022;9.338;2022-12-20T03:13:35;1.70;;;1.60;;
20230;SDS011;10274;49.022;9.338;2022-12-20T03:16:02;1.40;;;1.30;;
20230;SDS011;10274;49.022;9.338;2022-12-20T03:18:31;1.73;;;1.53;;
20230;SDS011;10274;49.022;9.338;2022-12-20T03:20:58;2.00;;;1.77;;
20230;SDS011;10274;49.022;9.338;2022-12-20T03:23:24;1.10;;;1.00;;
20230;SDS011;10274;49.022;9.338;2022-12-20T03:25:51;1.70;;;1.50;;
20230;SDS011;10274;49.022;9.338;2022-12-20T03:28:18;2.47;;;1.90;;
20230;SDS011;10274;49.022;9.338;2022-12-20T03:30:45;2.60;;;1.90;;
20230;SDS011;10274;49.022;9.338;2022-12-20T03:33:12;2.00;;;1.60;;
20230;SDS011;10274;49.022;9.338;2022-12-20T03:35:40;2.43;;;1.43;;
20230;SDS011;10274;49.022;9.338;2022-12-20T03:38:07;1.43;;;1.33;;
20230;SDS011;10274;49.022;9.338;2022-12-20T03:40:33;1.53;;;1.43;;
20230;SDS011;10274;49.022;9.338;2022-12-20T03:43:00;2.23;;;1.97;;
20230;SDS011;10274;49.022;9.338;2022-12-20T03:45:27;1.97;;;1.63;;
20230;SDS011;10274;49.022;9.338;2022-12-20T03:47:54;2.00;;;1.53;;
20230;SDS011;10274;49.022;9.338;2022-12-20T03:50:21;2.40;;;1.90;;
20230;SDS011;10274;49.022;9.338;2022-12-20T03:52:49;3.03;;;1.50;;
20230;SDS011;10274;49.022;9.338;2022-12-20T03:55:16;2.07;;;1.87;;
20230;SDS011;10274;49.022;9.338;2022-12-20T03:57:43;2.63;;;1.80;;
20230;SDS011;10274;49.022;9.338;2022-12-20T04:00:10;4.20;;;1.60;;
20230;SDS011;10274;49.022;9.338;2022-12-20T04:02:37;2.67;;;1.67;;
20230;SDS011;10274;49.022;9.338;2022-12-20T04:05:04;2.00;;;1.80;;
20230;SDS011;10274;49.022;9.338;2022-12-20T04:07:32;1.73;;;1.63;;
20230;SDS011;10274;49.022;9.338;2022-12-20T04:10:00;2.37;;;1.30;;
20230;SDS011;10274;49.022;9.338;2022-12-20T04:12:26;2.43;;;1.70;;
20230;SDS011;10274;49.022;9.338;2022-12-20T04:14:53;2.90;;;1.73;;
20230;SDS011;10274;49.022;9.338;2022-12-20T04:17:20;1.53;;;1.20;;
20230;SDS011;10274;49.022;9.338;2022-12-20T04:19:47;2.40;;;1.50;;
20230;SDS011;10274;49.022;9.338;2022-12-20T04:22:13;1.30;;;1.20;;
20230;SDS011;10274;49.022;9.338;2022-12-20T04:24:40;2.97;;;2.07;;
20230;SDS011;10274;49.022;9.338;2022-12-20T04:27:08;1.60;;;1.40;;
20230;SDS011;10274;49.022;9.338;2022-12-20T04:29:35;1.83;;;1.50;;
20230;SDS011;10274;49.022;9.338;2022-12-20T04:32:02;2.17;;;1.53;;
20230;SDS011;10274;49.022;9.338;2022-12-20T04:34:28;1.40;;;1.30;;
20230;SDS011;10274;49.022;9.338;2022-12-20T04:36:55;1.60;;;1.50;;
20230;SDS011;10274;49.022;9.338;2022-12-20T04:39:22;1.27;;;1.17;;
20230;SDS011;10274;49.022;9.338;2022-12-20T04:41:49;2.33;;;1.50;;
20230;SDS011;10274;49.022;9.338;2022-12-20T04:44:17;5.17;;;1.57;;
20230;SDS011;10274;49.022;9.338;2022-12-20T04:46:44;1.23;;;1.13;;
20230;SDS011;10274;49.022;9.338;2022-12-20T04:49:10;1.53;;;1.43;;
20230;SDS011;10274;49.022;9.338;2022-12-20T04:51:37;1.53;;;1.40;;
20230;SDS011;10274;49.022;9.338;2022-12-20T04:54:04;1.43;;;1.30;;
20230;SDS011;10274;49.022;9.338;2022-12-20T04:56:30;1.90;;;1.20;;
20230;SDS011;10274;49.022;9.338;2022-12-20T04:58:57;1.30;;;1.13;;
20230;SDS011;10274;49.022;9.338;2022-12-20T05:01:25;2.20;;;1.40;;
20230;SDS011;10274;49.022;9.338;2022-12-20T05:03:52;2.03;;;1.53;;
20230;SDS011;10274;49.022;9.338;2022-12-20T05:06:19;1.60;;;1.50;;
20230;SDS011;10274;49.022;9.338;2022-12-20T05:08:46;1.77;;;1.40;;
20230;SDS011;10274;49.022;9.338;2022-12-20T05:11:13;2.90;;;1.97;;
20230;SDS011;10274;49.022;9.338;2022-12-20T05:13:40;2.13;;;1.23;;
20230;SDS011;10274;49.022;9.338;2022-12-20T05:16:06;1.60;;;1.43;;
20230;SDS011;10274;49.022;9.338;2022-12-20T05:18:35;1.77;;;1.40;;
20230;SDS011;10274;49.022;9.338;2022-12-20T05:21:02;2.57;;;2.10;;
20230;SDS011;10274;49.022;9.338;2022-12-20T05:23:47;1.97;;;1.77;;
20230;SDS011;10274;49.022;9.338;2022-12-20T05:26:32;2.07;;;1.23;;
20230;SDS011;10274;49.022;9.338;2022-12-20T05:29:00;2.10;;;1.83;;
20230;SDS011;10274;49.022;9.338;2022-12-20T05:31:27;1.60;;;1.47;;
20230;SDS011;10274;49.022;9.338;2022-12-20T05:33:55;1.67;;;1.57;;
20230;SDS011;10274;49.022;9.338;2022-12-20T05:36:22;2.47;;;1.57;;
20230;SDS011;10274;49.022;9.338;2022-12-20T05:38:49;2.17;;;1.60;;
20230;SDS011;10274;49.022;9.338;2022-12-20T05:41:16;3.27;;;2.13;;
20230;SDS011;10274;49.022;9.338;2022-12-20T05:43:42;5.43;;;3.00;;
20230;SDS011;10274;49.022;9.338;2022-12-20T05:46:09;2.93;;;2.13;;
20230;SDS011;10274;49.022;9.338;2022-12-20T05:48:36;3.33;;;2.53;;
20230;SDS011;10274;49.022;9.338;2022-12-20T05:51:04;4.70;;;3.17;;
20230;SDS011;10274;49.022;9.338;2022-12-20T05:53:31;5.73;;;3.03;;
20230;SDS011;10274;49.022;9.338;2022-12-20T05:55:58;3.33;;;2.83;;
20230;SDS011;10274;49.022;9.338;2022-12-20T05:58:26;2.97;;;2.23;;
20230;SDS011;10274;49.022;9.338;2022-12-20T06:00:53;2.47;;;1.83;;
20230;SDS011;10274;49.022;9.338;2022-12-20T06:03:22;5.63;;;2.67;;
20230;SDS011;10274;49.022;9.338;2022-12-20T06:05:49;2.20;;;1.73;;
20230;SDS011;10274;49.022;9.338;2022-12-20T06:08:17;3.10;;;1.53;;
20230;SDS011;10274;49.022;9.338;2022-12-20T06:10:45;1.90;;;1.80;;
20230;SDS011;10274;49.022;9.338;2022-12-20T06:13:13;1.93;;;1.60;;
20230;SDS011;10274;49.022;9.338;2022-12-20T06:15:40;2.47;;;1.80;;
20230;SDS011;10274;49.022;9.338;2022-12-20T06:18:07;3.57;;;1.70;;
20230;SDS011;10274;49.022;9.338;2022-12-20T06:20:35;2.33;;;1.80;;
20230;SDS011;10274;49.022;9.338;2022-12-20T06:23:02;2.70;;;2.00;;
20230;SDS011;10274;49.022;9.338;2022-12-20T06:25:30;3.03;;;2.30;;
20230;SDS011;10274;49.022;9.338;2022-12-20T06:27:57;2.90;;;1.93;;
20230;SDS011;10274;49.022;9.338;2022-12-20T06:30:24;2.27;;;2.07;;
20230;SDS011;10274;49.022;9.338;2022-12-20T06:32:51;2.20;;;1.93;;
20230;SDS011;10274;49.022;9.338;2022-12-20T06:35:17;4.20;;;2.30;;
20230;SDS011;10274;49.022;9.338;2022-12-20T06:37:44;2.17;;;1.77;;
20230;SDS011;10274;49.022;9.338;2022-12-20T06:40:11;3.27;;;2.00;;
20230;SDS011;10274;49.022;9.338;2022-12-20T06:42:40;2.33;;;1.90;;
20230;SDS011;10274;49.022;9.338;2022-12-20T06:45:07;2.00;;;1.43;;
20230;SDS011;10274;49.022;9.338;2022-12-20T06:47:34;1.87;;;1.60;;
20230;SDS011;10274;49.022;9.338;2022-12-20T06:50:02;2.63;;;1.73;;
20230;SDS011;10274;49.022;9.338;2022-12-20T06:52:29;5.90;;;3.43;;
20230;SDS011;10274;49.022;9.338;2022-12-20T06:54:56;2.83;;;1.70;;
20230;SDS011;10274;49.022;9.338;2022-12-20T06:57:23;2.83;;;2.23;;
20230;SDS011;10274;49.022;9.338;2022-12-20T06:59:51;2.17;;;1.90;;
20230;SDS011;10274;49.022;9.338;2022-12-20T07:02:18;1.90;;;1.80;;
20230;SDS011;10274;49.022;9.338;2022-12-20T07:04:44;3.37;;;2.00;;
20230;SDS011;10274;49.022;9.338;2022-12-20T07:07:11;6.93;;;2.50;;
20230;SDS011;10274;49.022;9.338;2022-12-20T07:09:38;2.77;;;2.07;;
20230;SDS011;10274;49.022;9.338;2022-12-20T07:12:06;3.23;;;2.40;;
20230;SDS011;10274;49.022;9.338;2022-12-20T07:14:33;2.80;;;1.87;;
20230;SDS011;10274;49.022;9.338;2022-12-20T07:17:02;1.63;;;1.53;;
20230;SDS011;10274;49.022;9.338;2022-12-20T07:19:29;2.80;;;2.13;;
20230;SDS011;10274;49.022;9.338;2022-12-20T07:21:56;4.77;;;2.17;;
20230;SDS011;10274;49.022;9.338;2022-12-20T07:24:23;3.00;;;2.00;;
20230;SDS011;10274;49.022;9.338;2022-12-20T07:26:50;2.40;;;2.13;;
20230;SDS011;10274;49.022;9.338;2022-12-20T07:29:16;3.67;;;2.63;;
20230;SDS011;10274;49.022;9.338;2022-12-20T07:31:43;2.87;;;2.23;;
20230;SDS011;10274;49.022;9.338;2022-12-20T07:34:11;2.13;;;1.73;;
20230;SDS011;10274;49.022;9.338;2022-12-20T07:36:38;4.30;;;2.87;;
20230;SDS011;10274;49.022;9.338;2022-12-20T07:39:05;3.80;;;2.30;;
20230;SDS011;10274;49.022;9.338;2022-12-20T07:41:31;3.60;;;2.63;;
20230;SDS011;10274;49.022;9.338;2022-12-20T07:43:58;2.43;;;1.90;;
20230;SDS011;10274;49.022;9.338;2022-12-20T07:46:25;3.07;;;2.20;;
20230;SDS011;10274;49.022;9.338;2022-12-20T07:48:52;1.47;;;1.33;;
20230;SDS011;10274;49.022;9.338;2022-12-20T07:51:22;1.13;;;0.93;;
20230;SDS011;10274;49.022;9.338;2022-12-20T07:53:51;1.50;;;1.40;;
20230;SDS011;10274;49.022;9.338;2022-12-20T07:56:19;2.70;;;1.87;;
20230;SDS011;10274;49.022;9.338;2022-12-20T07:58:47;3.50;;;1.63;;
20230;SDS011;10274;49.022;9.338;2022-12-20T08:01:16;2.37;;;1.37;;
20230;SDS011;10274;49.022;9.338;2022-12-20T08:03:44;2.27;;;2.07;;
20230;SDS011;10274;49.022;9.338;2022-12-20T08:06:14;1.47;;;1.37;;
20230;SDS011;10274;49.022;9.338;2022-12-20T08:08:44;2.23;;;1.20;;
20230;SDS011;10274;49.022;9.338;2022-12-20T08:11:14;3.13;;;1.60;;
20230;SDS011;10274;49.022;9.338;2022-12-20T08:13:42;1.50;;;1.40;;
20230;SDS011;10274;49.022;9.338;2022-12-20T08:16:09;1.60;;;1.27;;
20230;SDS011;10274;49.022;9.338;2022-12-20T08:18:35;1.17;;;1.07;;
20230;SDS011;10274;49.022;9.338;2022-12-20T08:21:02;1.60;;;1.50;;
20230;SDS011;10274;49.022;9.338;2022-12-20T08:23:29;1.37;;;1.20;;
20230;SDS011;10274;49.022;9.338;2022-12-20T08:25:57;1.73;;;1.23;;
20230;SDS011;10274;49.022;9.338;2022-12-20T08:28:25;2.17;;;1.07;;
20230;SDS011;10274;49.022;9.338;2022-12-20T08:30:52;0.87;;;0.80;;
20230;SDS011;10274;49.022;9.338;2022-12-20T08:33:24;1.17;;;1.03;;
20230;SDS011;10274;49.022;9.338;2022-12-20T08:35:55;1.07;;;0.93;;
20230;SDS011;10274;49.022;9.338;2022-12-20T08:38:22;0.83;;;0.70;;
20230;SDS011;10274;49.022;9.338;2022-12-20T08:40:51;1.33;;;1.23;;
20230;SDS011;10274;49.022;9.338;2022-12-20T08:43:19;1.67;;;1.00;;
20230;SDS011;10274;49.022;9.338;2022-12-20T08:45:50;1.23;;;1.03;;
20230;SDS011;10274;49.022;9.338;2022-12-20T08:48:17;1.10;;;0.90;;
20230;SDS011;10274;49.022;9.338;2022-12-20T08:50:44;0.83;;;0.83;;
20230;SDS011;10274;49.022;9.338;2022-12-20T08:53:10;1.17;;;0.80;;
20230;SDS011;10274;49.022;9.338;2022-12-20T08:55:37;0.90;;;0.80;;
20230;SDS011;10274;49.022;9.338;2022-12-20T08:58:04;0.97;;;0.93;;
20230;SDS011;10274;49.022;9.338;2022-12-20T09:00:32;1.73;;;0.73;;
20230;SDS011;10274;49.022;9.338;2022-12-20T09:02:59;1.00;;;0.87;;
20230;SDS011;10274;49.022;9.338;2022-12-20T09:05:25;1.13;;;1.03;;
20230;SDS011;10274;49.022;9.338;2022-12-20T09:07:52;1.97;;;1.00;;
20230;SDS011;10274;49.022;9.338;2022-12-20T09:10:19;0.90;;;0.90;;
20230;SDS011;10274;49.022;9.338;2022-12-20T09:12:46;0.80;;;0.80;;
20230;SDS011;10274;49.022;9.338;2022-12-20T09:15:12;1.33;;;1.00;;
20230;SDS011;10274;49.022;9.338;2022-12-20T09:17:40;1.80;;;1.13;;
20230;SDS011;10274;49.022;9.338;2022-12-20T09:20:07;0.93;;;0.77;;
20230;SDS011;10274;49.022;9.338;2022-12-20T09:22:34;1.00;;;1.00;;
20230;SDS011;10274;49.022;9.338;2022-12-20T09:25:01;0.87;;;0.87;;
20230;SDS011;10274;49.022;9.338;2022-12-20T09:27:28;1.07;;;1.03;;
20230;SDS011;10274;49.022;9.338;2022-12-20T09:29:55;2.13;;;0.90;;
20230;SDS011;10274;49.022;9.338;2022-12-20T09:32:21;1.37;;;1.00;;
20230;SDS011;10274;49.022;9.338;2022-12-20T09:34:49;1.70;;;1.20;;
20230;SDS011;10274;49.022;9.338;2022-12-20T09:37:16;1.63;;;1.10;;
20230;SDS011;10274;49.022;9.338;2022-12-20T09:39:43;1.43;;;0.87;;
20230;SDS011;10274;49.022;9.338;2022-12-20T09:42:09;2.83;;;1.03;;
20230;SDS011;10274;49.022;9.338;2022-12-20T09:44:39;1.63;;;1.10;;
20230;SDS011;10274;49.022;9.338;2022-12-20T09:47:08;0.63;;;0.63;;
20230;SDS011;10274;49.022;9.338;2022-12-20T09:49:40;1.43;;;1.20;;
20230;SDS011;10274;49.022;9.338;2022-12-20T09:52:19;1.50;;;0.90;;
20230;SDS011;10274;49.022;9.338;2022-12-20T09:54:54;1.07;;;0.83;;
20230;SDS011;10274;49.022;9.338;2022-12-20T09:57:30;0.50;;;0.50;;
20230;SDS011;10274;49.022;9.338;2022-12-20T10:00:12;1.63;;;0.80;;
20230;SDS011;10274;49.022;9.338;2022-12-20T10:02:40;1.60;;;1.30;;
20230;SDS011;10274;49.022;9.338;2022-12-20T10:05:08;0.73;;;0.73;;
20230;SDS011;10274;49.022;9.338;2022-12-20T10:07:43;0.80;;;0.70;;
20230;SDS011;10274;49.022;9.338;2022-12-20T10:13:18;1.47;;;0.70;;
20230;SDS011;10274;49.022;9.338;2022-12-20T10:15:59;0.77;;;0.77;;
20230;SDS011;10274;49.022;9.338;2022-12-20T10:18:41;0.90;;;0.90;;
20230;SDS011;10274;49.022;9.338;2022-12-20T10:21:18;0.73;;;0.60;;
20230;SDS011;10274;49.022;9.338;2022-12-20T10:23:55;1.00;;;0.87;;
20230;SDS011;10274;49.022;9.338;2022-12-20T10:26:26;1.00;;;0.90;;
20230;SDS011;10274;49.022;9.338;2022-12-20T10:28:53;1.90;;;1.10;;
20230;SDS011;10274;49.022;9.338;2022-12-20T10:31:20;1.43;;;1.10;;
20230;SDS011;10274;49.022;9.338;2022-12-20T10:33:47;1.57;;;1.10;;
20230;SDS011;10274;49.022;9.338;2022-12-20T10:36:17;1.17;;;1.07;;
20230;SDS011;10274;49.022;9.338;2022-12-20T10:38:54;1.27;;;0.90;;
20230;SDS011;10274;49.022;9.338;2022-12-20T10:41:23;1.43;;;1.23;;
20230;SDS011;10274;49.022;9.338;2022-12-20T10:43:53;1.67;;;1.37;;
20230;SDS011;10274;49.022;9.338;2022-12-20T10:46:27;0.87;;;0.87;;
20230;SDS011;10274;49.022;9.338;2022-12-20T10:49:05;1.23;;;1.03;;
20230;SDS011;10274;49.022;9.338;2022-12-20T10:51:50;1.10;;;1.00;;
20230;SDS011;10274;49.022;9.338;2022-12-20T10:54:21;1.13;;;0.90;;
20230;SDS011;10274;49.022;9.338;2022-12-20T10:56:53;1.50;;;1.13;;
20230;SDS011;10274;49.022;9.338;2022-12-20T10:59:23;1.23;;;1.13;;
20230;SDS011;10274;49.022;9.338;2022-12-20T11:01:54;1.23;;;1.00;;
20230;SDS011;10274;49.022;9.338;2022-12-20T11:04:24;1.23;;;1.10;;
20230;SDS011;10274;49.022;9.338;2022-12-20T11:06:52;0.93;;;0.90;;
20230;SDS011;10274;49.022;9.338;2022-12-20T11:09:22;1.03;;;0.97;;
20230;SDS011;10274;49.022;9.338;2022-12-20T11:12:02;1.30;;;1.20;;
20230;SDS011;10274;49.022;9.338;2022-12-20T11:14:31;1.10;;;0.90;;
20230;SDS011;10274;49.022;9.338;2022-12-20T11:17:00;1.37;;;1.07;;
20230;SDS011;10274;49.022;9.338;2022-12-20T11:19:36;1.20;;;0.90;;
20230;SDS011;10274;49.022;9.338;2022-12-20T11:22:20;1.10;;;1.00;;
20230;SDS011;10274;49.022;9.338;2022-12-20T11:24:58;1.13;;;1.03;;
20230;SDS011;10274;49.022;9.338;2022-12-20T11:27:35;1.50;;;1.40;;
20230;SDS011;10274;49.022;9.338;2022-12-20T11:30:08;1.63;;;1.00;;
20230;SDS011;10274;49.022;9.338;2022-12-20T11:35:36;0.93;;;0.83;;
20230;SDS011;10274;49.022;9.338;2022-12-20T11:38:12;0.83;;;0.77;;
20230;SDS011;10274;49.022;9.338;2022-12-20T11:40:49;0.80;;;0.80;;
20230;SDS011;10274;49.022;9.338;2022-12-20T11:43:26;0.93;;;0.83;;
20230;SDS011;10274;49.022;9.338;2022-12-20T11:46:05;0.83;;;0.83;;
20230;SDS011;10274;49.022;9.338;2022-12-20T11:48:49;1.73;;;1.00;;
20230;SDS011;10274;49.022;9.338;2022-12-20T11:51:29;0.73;;;0.73;;
20230;SDS011;10274;49.022;9.338;2022-12-20T11:54:06;1.10;;;1.00;;
20230;SDS011;10274;49.022;9.338;2022-12-20T11:56:41;0.90;;;0.80;;
20230;SDS011;10274;49.022;9.338;2022-12-20T11:59:11;0.80;;;0.80;;
20230;SDS011;10274;49.022;9.338;2022-12-20T12:01:45;0.87;;;0.87;;
20230;SDS011;10274;49.022;9.338;2022-12-20T12:04:18;1.30;;;1.20;;
20230;SDS011;10274;49.022;9.338;2022-12-20T12:06:47;0.60;;;0.60;;
20230;SDS011;10274;49.022;9.338;2022-12-20T12:09:21;1.47;;;1.10;;
20230;SDS011;10274;49.022;9.338;2022-12-20T12:11:53;0.80;;;0.80;;
20230;SDS011;10274;49.022;9.338;2022-12-20T12:14:27;0.83;;;0.83;;
20230;SDS011;10274;49.022;9.338;2022-12-20T12:16:59;0.77;;;0.77;;
20230;SDS011;10274;49.022;9.338;2022-12-20T12:19:32;0.80;;;0.80;;
20230;SDS011;10274;49.022;9.338;2022-12-20T12:22:05;1.83;;;0.73;;
20230;SDS011;10274;49.022;9.338;2022-12-20T12:24:39;1.63;;;1.37;;
20230;SDS011;10274;49.022;9.338;2022-12-20T12:27:11;2.00;;;1.37;;
20230;SDS011;10274;49.022;9.338;2022-12-20T12:29:45;1.37;;;0.90;;
20230;SDS011;10274;49.022;9.338;2022-12-20T12:32:13;0.53;;;0.53;;
20230;SDS011;10274;49.022;9.338;2022-12-20T12:34:47;0.67;;;0.67;;
20230;SDS011;10274;49.022;9.338;2022-12-20T12:37:27;1.47;;;0.93;;
20230;SDS011;10274;49.022;9.338;2022-12-20T12:40:28;1.33;;;1.20;;
20230;SDS011;10274;49.022;9.338;2022-12-20T12:46:21;1.07;;;1.00;;
20230;SDS011;10274;49.022;9.338;2022-12-20T12:48:53;1.30;;;0.90;;
20230;SDS011;10274;49.022;9.338;2022-12-20T12:51:25;0.77;;;0.70;;
20230;SDS011;10274;49.022;9.338;2022-12-20T12:54:01;0.77;;;0.77;;
20230;SDS011;10274;49.022;9.338;2022-12-20T12:56:35;1.87;;;1.17;;
20230;SDS011;10274;49.022;9.338;2022-12-20T12:59:21;1.70;;;1.20;;
20230;SDS011;10274;49.022;9.338;2022-12-20T13:05:29;1.30;;;0.90;;
20230;SDS011;10274;49.022;9.338;2022-12-20T13:07:58;1.00;;;0.73;;
20230;SDS011;10274;49.022;9.338;2022-12-20T13:13:31;1.87;;;1.20;;
20230;SDS011;10274;49.022;9.338;2022-12-20T13:16:12;0.70;;;0.70;;
20230;SDS011;10274;49.022;9.338;2022-12-20T13:18:55;2.00;;;0.90;;
20230;SDS011;10274;49.022;9.338;2022-12-20T13:21:36;0.70;;;0.70;;
20230;SDS011;10274;49.022;9.338;2022-12-20T13:27:27;0.80;;;0.80;;
20230;SDS011;10274;49.022;9.338;2022-12-20T13:29:57;1.00;;;0.97;;
20230;SDS011;10274;49.022;9.338;2022-12-20T13:35:57;1.40;;;0.63;;
20230;SDS011;10274;49.022;9.338;2022-12-20T13:38:36;1.80;;;1.00;;
20230;SDS011;10274;49.022;9.338;2022-12-20T13:41:17;1.40;;;1.10;;
20230;SDS011;10274;49.022;9.338;2022-12-20T13:43:54;1.60;;;1.00;;
20230;SDS011;10274;49.022;9.338;2022-12-20T13:46:23;0.90;;;0.83;;
20230;SDS011;10274;49.022;9.338;2022-12-20T13:48:57;1.20;;;0.87;;
20230;SDS011;10274;49.022;9.338;2022-12-20T13:51:28;1.47;;;1.37;;
20230;SDS011;10274;49.022;9.338;2022-12-20T13:53:56;1.33;;;1.17;;
20230;SDS011;10274;49.022;9.338;2022-12-20T13:56:35;1.23;;;1.10;;
20230;SDS011;10274;49.022;9.338;2022-12-20T13:59:11;0.80;;;0.80;;
20230;SDS011;10274;49.022;9.338;2022-12-20T14:01:50;1.80;;;0.90;;
20230;SDS011;10274;49.022;9.338;2022-12-20T14:04:19;1.00;;;0.80;;
20230;SDS011;10274;49.022;9.338;2022-12-20T14:06:50;0.90;;;0.90;;
20230;SDS011;10274;49.022;9.338;2022-12-20T14:09:27;1.70;;;1.27;;
20230;SDS011;10274;49.022;9.338;2022-12-20T14:12:01;1.30;;;1.20;;
20230;SDS011;10274;49.022;9.338;2022-12-20T14:14:30;0.97;;;0.97;;
20230;SDS011;10274;49.022;9.338;2022-12-20T14:17:13;1.07;;;0.80;;
20230;SDS011;10274;49.022;9.338;2022-12-20T14:19:40;1.33;;;1.00;;
20230;SDS011;10274;49.022;9.338;2022-12-20T14:22:08;0.60;;;0.60;;
20230;SDS011;10274;49.022;9.338;2022-12-20T14:24:36;1.77;;;1.00;;
20230;SDS011;10274;49.022;9.338;2022-12-20T14:27:07;1.00;;;0.80;;
20230;SDS011;10274;49.022;9.338;2022-12-20T14:29:36;1.40;;;1.30;;
20230;SDS011;10274;49.022;9.338;2022-12-20T14:32:04;1.37;;;0.90;;
20230;SDS011;10274;49.022;9.338;2022-12-20T14:34:31;1.13;;;0.93;;
20230;SDS011;10274;49.022;9.338;2022-12-20T14:39:54;0.50;;;0.50;;
20230;SDS011;10274;49.022;9.338;2022-12-20T14:42:22;0.90;;;0.70;;
20230;SDS011;10274;49.022;9.338;2022-12-20T14:45:00;1.07;;;0.87;;
20230;SDS011;10274;49.022;9.338;2022-12-20T14:47:28;2.80;;;1.10;;
20230;SDS011;10274;49.022;9.338;2022-12-20T14:49:56;3.67;;;0.80;;
20230;SDS011;10274;49.022;9.338;2022-12-20T14:52:28;1.30;;;1.20;;
20230;SDS011;10274;49.022;9.338;2022-12-20T14:54:59;2.80;;;1.07;;
20230;SDS011;10274;49.022;9.338;2022-12-20T14:57:30;1.10;;;1.00;;
20230;SDS011;10274;49.022;9.338;2022-12-20T15:00:12;0.87;;;0.87;;
20230;SDS011;10274;49.022;9.338;2022-12-20T15:02:45;0.90;;;0.80;;
20230;SDS011;10274;49.022;9.338;2022-12-20T15:08:19;0.63;;;0.63;;
20230;SDS011;10274;49.022;9.338;2022-12-20T15:10:52;0.90;;;0.90;;
20230;SDS011;10274;49.022;9.338;2022-12-20T15:13:21;1.20;;;1.07;;
20230;SDS011;10274;49.022;9.338;2022-12-20T15:15:51;1.10;;;0.97;;
20230;SDS011;10274;49.022;9.338;2022-12-20T15:18:19;0.70;;;0.70;;
20230;SDS011;10274;49.022;9.338;2022-12-20T15:20:47;1.13;;;1.03;;
20230;SDS011;10274;49.022;9.338;2022-12-20T15:23:19;0.23;;;0.23;;
20230;SDS011;10274;49.022;9.338;2022-12-20T15:25:47;0.60;;;0.60;;
20230;SDS011;10274;49.022;9.338;2022-12-20T15:28:14;0.70;;;0.60;;
20230;SDS011;10274;49.022;9.338;2022-12-20T15:30:42;0.87;;;0.87;;
20230;SDS011;10274;49.022;9.338;2022-12-20T15:33:12;1.10;;;1.00;;